createdAt,value
2018-12-15T00:01:00.509Z,99026.91
2018-12-15T00:03:30.181Z,99019.91
2018-12-15T00:05:59.885Z,99023.75
2018-12-15T00:08:29.478Z,99023.36
2018-12-15T00:10:59.067Z,99021.14
2018-12-15T00:13:28.787Z,99025.33
2018-12-15T00:15:58.465Z,99030.87
2018-12-15T00:18:28.296Z,99030.70
2018-12-15T00:20:57.930Z,99027.98
2018-12-15T00:23:27.606Z,99032.40
2018-12-15T00:25:57.232Z,99029.17
2018-12-15T00:28:26.913Z,99036.81
2018-12-15T00:30:56.547Z,99039.98
2018-12-15T00:33:26.249Z,99037.61
2018-12-15T00:35:55.868Z,99042.53
2018-12-15T00:38:25.651Z,99039.19
2018-12-15T00:40:55.276Z,99039.75
2018-12-15T00:43:24.972Z,99043.09
2018-12-15T00:45:54.604Z,99042.84
2018-12-15T00:48:24.290Z,99045.02
2018-12-15T00:50:53.923Z,99044.83
2018-12-15T00:53:23.641Z,99046.52
2018-12-15T00:55:53.269Z,99039.58
2018-12-15T00:58:22.937Z,99046.52
2018-12-15T01:00:52.533Z,99059.48
2018-12-15T01:03:22.167Z,99052.12
2018-12-15T01:05:51.791Z,99061.08
2018-12-15T01:08:21.457Z,99057.50
2018-12-15T01:10:51.174Z,99063.80
2018-12-15T01:13:20.778Z,99062.03
2018-12-15T01:15:50.475Z,99065.55
2018-12-15T01:18:20.103Z,99072.27
2018-12-15T01:20:49.773Z,99073.24
2018-12-15T01:23:19.393Z,99079.02
2018-12-15T01:25:49.125Z,99076.63
2018-12-15T01:28:18.735Z,99079.52
2018-12-15T01:30:48.411Z,99080.64
2018-12-15T01:33:18.080Z,99080.70
2018-12-15T01:35:47.729Z,99080.09
2018-12-15T01:38:17.350Z,99083.99
2018-12-15T01:40:47.054Z,99091.29
2018-12-15T01:43:16.799Z,99092.14
2018-12-15T01:45:46.471Z,99093.66
2018-12-15T01:48:16.093Z,99091.34
2018-12-15T01:50:45.789Z,99097.45
2018-12-15T01:53:15.407Z,99096.15
2018-12-15T01:55:45.170Z,99095.20
2018-12-15T01:58:14.801Z,99104.02
2018-12-15T02:00:44.529Z,99105.48
2018-12-15T02:03:14.229Z,99108.66
2018-12-15T02:05:43.894Z,99107.64
2018-12-15T02:08:13.532Z,99109.09
2018-12-15T02:10:43.267Z,99108.19
2018-12-15T02:13:12.893Z,99101.23
2018-12-15T02:15:42.585Z,99103.45
2018-12-15T02:18:12.194Z,99111.14
2018-12-15T02:20:41.903Z,99106.43
2018-12-15T02:23:11.535Z,99102.30
2018-12-15T02:25:41.197Z,99102.64
2018-12-15T02:28:10.806Z,99102.20
2018-12-15T02:30:40.514Z,99100.34
2018-12-15T02:33:10.206Z,99098.75
2018-12-15T02:35:39.836Z,99103.40
2018-12-15T02:38:09.459Z,99098.20
2018-12-15T02:40:39.166Z,99108.20
2018-12-15T02:43:08.770Z,99098.75
2018-12-15T02:45:38.462Z,99101.34
2018-12-15T02:48:08.067Z,99101.48
2018-12-15T02:50:37.775Z,99104.02
2018-12-15T02:53:07.353Z,99101.25
2018-12-15T02:55:36.979Z,99102.30
2018-12-15T02:58:06.561Z,99096.47
2018-12-15T03:00:36.198Z,99092.36
2018-12-15T03:03:06.015Z,99097.16
2018-12-15T03:05:35.593Z,99098.01
2018-12-15T03:08:05.165Z,99105.05
2018-12-15T03:10:34.805Z,99106.78
2018-12-15T03:13:04.411Z,99105.42
2018-12-15T03:15:34.048Z,99106.23
2018-12-15T03:18:03.623Z,99106.84
2018-12-15T03:20:33.237Z,99105.66
2018-12-15T03:23:02.784Z,99107.47
2018-12-15T03:25:32.361Z,99109.91
2018-12-15T03:28:01.938Z,99107.06
2018-12-15T03:30:31.676Z,99101.32
2018-12-15T03:33:01.266Z,99112.83
2018-12-15T03:35:30.888Z,99106.44
2018-12-15T03:38:00.477Z,99112.05
2018-12-15T03:40:30.431Z,99114.04
2018-12-15T03:43:00.037Z,99110.80
2018-12-15T03:45:29.695Z,99120.32
2018-12-15T03:47:59.285Z,99117.44
2018-12-15T03:50:28.915Z,99125.30
2018-12-15T03:52:58.545Z,99129.94
2018-12-15T03:55:28.162Z,99130.91
2018-12-15T03:57:57.709Z,99124.91
2018-12-15T04:00:27.546Z,99131.23
2018-12-15T04:02:57.165Z,99135.60
2018-12-15T04:05:26.820Z,99135.31
2018-12-15T04:07:56.461Z,99136.22
2018-12-15T04:10:26.134Z,99136.80
2018-12-15T04:12:55.878Z,99129.64
2018-12-15T04:15:25.520Z,99130.29
2018-12-15T04:17:55.162Z,99130.81
2018-12-15T04:20:24.773Z,99134.09
2018-12-15T04:22:54.463Z,99135.75
2018-12-15T04:25:24.080Z,99147.30
2018-12-15T04:27:53.799Z,99143.23
2018-12-15T04:30:23.425Z,99144.14
2018-12-15T04:32:53.106Z,99144.42
2018-12-15T04:35:22.728Z,99143.23
2018-12-15T04:37:52.436Z,99146.75
2018-12-15T04:40:22.272Z,99147.63
2018-12-15T04:42:51.925Z,99149.80
2018-12-15T04:45:21.501Z,99150.92
2018-12-15T04:47:51.138Z,99145.03
2018-12-15T04:50:20.756Z,99143.97
2018-12-15T04:52:50.465Z,99138.22
2018-12-15T04:55:20.053Z,99138.14
2018-12-15T04:57:49.668Z,99144.01
2018-12-15T05:00:19.260Z,99143.59
2018-12-15T05:02:48.972Z,99146.11
2018-12-15T05:05:18.576Z,99142.70
2018-12-15T05:07:48.270Z,99141.66
2018-12-15T05:10:17.882Z,99134.77
2018-12-15T05:12:47.458Z,99146.03
2018-12-15T05:15:17.061Z,99133.23
2018-12-15T05:17:46.651Z,99134.84
2018-12-15T05:20:16.348Z,99137.22
2018-12-15T05:22:45.925Z,99133.70
2018-12-15T05:25:15.640Z,99142.36
2018-12-15T05:27:45.209Z,99137.28
2018-12-15T05:30:14.849Z,99139.70
2018-12-15T05:32:44.447Z,99138.67
2018-12-15T05:35:14.050Z,99134.59
2018-12-15T05:37:43.635Z,99138.25
2018-12-15T05:40:13.444Z,99133.77
2018-12-15T05:42:43.075Z,99137.79
2018-12-15T05:45:12.963Z,99137.86
2018-12-15T05:47:42.532Z,99141.59
2018-12-15T05:50:12.349Z,99142.38
2018-12-15T05:52:41.919Z,99135.59
2018-12-15T05:55:11.519Z,99136.26
2018-12-15T05:57:41.220Z,99135.91
2018-12-15T06:00:11.513Z,99141.70
2018-12-15T06:02:41.552Z,99141.84
2018-12-15T06:05:11.997Z,99141.27
2018-12-15T06:07:41.600Z,99142.70
2018-12-15T06:10:11.247Z,99146.17
2018-12-15T06:12:40.904Z,99148.70
2018-12-15T06:15:10.489Z,99150.20
2018-12-15T06:17:40.183Z,99144.44
2018-12-15T06:20:09.930Z,99143.69
2018-12-15T06:22:39.649Z,99147.78
2018-12-15T06:25:09.419Z,99143.69
2018-12-15T06:27:39.097Z,99145.97
2018-12-15T06:30:09.306Z,99149.38
2018-12-15T06:32:38.934Z,99147.67
2018-12-15T06:35:08.546Z,99142.05
2018-12-15T06:37:38.247Z,99145.01
2018-12-15T06:40:08.152Z,99143.94
2018-12-15T06:42:37.814Z,99148.48
2018-12-15T06:45:08.381Z,99149.66
2018-12-15T06:47:37.979Z,99148.41
2018-12-15T06:50:07.837Z,99153.36
2018-12-15T06:52:37.505Z,99155.67
2018-12-15T06:55:08.620Z,99154.96
2018-12-15T06:57:38.359Z,99156.63
2018-12-15T07:00:08.480Z,99159.12
2018-12-15T07:02:38.090Z,99165.02
2018-12-15T07:05:08.019Z,99167.69
2018-12-15T07:07:37.707Z,99170.31
2018-12-15T07:10:07.441Z,99173.45
2018-12-15T07:12:37.118Z,99169.07
2018-12-15T07:15:07.860Z,99166.66
2018-12-15T07:17:37.598Z,99170.11
2018-12-15T07:20:07.530Z,99177.28
2018-12-15T07:22:37.204Z,99176.32
2018-12-15T07:25:06.873Z,99179.38
2018-12-15T07:27:36.721Z,99178.92
2018-12-15T07:30:06.938Z,99184.36
2018-12-15T07:32:36.555Z,99181.95
2018-12-15T07:35:06.156Z,99182.27
2018-12-15T07:37:35.752Z,99187.80
2018-12-15T07:40:05.944Z,99185.50
2018-12-15T07:42:35.550Z,99175.36
2018-12-15T07:45:06.234Z,99178.45
2018-12-15T07:47:35.892Z,99182.11
2018-12-15T07:50:05.861Z,99178.06
2018-12-15T07:52:35.531Z,99179.62
2018-12-15T07:55:05.605Z,99178.73
2018-12-15T07:57:35.271Z,99178.14
2018-12-15T08:00:06.263Z,99187.23
2018-12-15T08:02:35.984Z,99180.45
2018-12-15T08:05:06.892Z,99182.94
2018-12-15T08:07:36.760Z,99177.56
2018-12-15T08:10:06.746Z,99181.30
2018-12-15T08:12:41.538Z,99184.43
2018-12-15T08:15:11.443Z,99184.72
2018-12-15T08:17:41.194Z,99181.27
2018-12-15T08:20:11.630Z,99187.70
2018-12-15T08:22:41.450Z,99189.02
2018-12-15T08:25:11.171Z,99186.17
2018-12-15T08:27:40.824Z,99187.52
2018-12-15T08:30:12.173Z,99182.80
2018-12-15T08:32:41.881Z,99180.70
2018-12-15T08:35:11.507Z,99184.25
2018-12-15T08:37:41.193Z,99187.70
2018-12-15T08:40:10.980Z,99180.52
2018-12-15T08:42:40.611Z,99186.61
2018-12-15T08:45:10.240Z,99181.95
2018-12-15T08:47:40.433Z,99181.77
2018-12-15T08:50:10.082Z,99184.89
2018-12-15T08:52:39.775Z,99182.30
2018-12-15T08:55:09.403Z,99187.49
2018-12-15T08:57:39.072Z,99188.06
2018-12-15T09:00:09.148Z,99187.39
2018-12-15T09:02:38.869Z,99185.39
2018-12-15T09:05:08.519Z,99187.31
2018-12-15T09:07:38.226Z,99194.46
2018-12-15T09:10:07.991Z,99186.28
2018-12-15T09:12:37.659Z,99186.81
2018-12-15T09:15:07.512Z,99191.41
2018-12-15T09:17:37.017Z,99191.72
2018-12-15T09:20:07.006Z,99190.27
2018-12-15T09:22:36.673Z,99195.45
2018-12-15T09:25:06.461Z,99196.88
2018-12-15T09:27:36.521Z,99193.71
2018-12-15T09:30:07.627Z,99193.03
2018-12-15T09:32:37.265Z,99196.03
2018-12-15T09:35:07.066Z,99192.05
2018-12-15T09:37:36.810Z,99197.41
2018-12-15T09:40:06.957Z,99199.52
2018-12-15T09:42:36.612Z,99201.00
2018-12-15T09:45:07.361Z,99200.30
2018-12-15T09:47:37.181Z,99199.30
2018-12-15T09:50:07.068Z,99192.14
2018-12-15T09:52:36.694Z,99194.30
2018-12-15T09:55:06.561Z,99189.87
2018-12-15T09:57:36.160Z,99185.73
2018-12-15T10:00:06.837Z,99187.05
2018-12-15T10:02:36.498Z,99188.81
2018-12-15T10:05:06.814Z,99186.81
2018-12-15T10:07:36.455Z,99178.32
2018-12-15T10:10:06.672Z,99184.64
2018-12-15T10:12:36.391Z,99182.20
2018-12-15T10:15:06.606Z,99180.52
2018-12-15T10:17:36.194Z,99180.98
2018-12-15T10:20:06.716Z,99177.42
2018-12-15T10:22:36.309Z,99177.06
2018-12-15T10:25:06.213Z,99174.82
2018-12-15T10:27:35.932Z,99171.41
2018-12-15T10:30:11.838Z,99185.18
2018-12-15T10:32:46.512Z,99168.11
2018-12-15T10:35:16.113Z,99178.10
2018-12-15T10:37:45.776Z,99173.86
2018-12-15T10:40:15.485Z,99173.80
2018-12-15T10:42:45.166Z,99177.98
2018-12-15T10:45:14.764Z,99180.48
2018-12-15T10:47:44.424Z,99174.11
2018-12-15T10:50:14.170Z,99173.67
2018-12-15T10:52:43.789Z,99168.58
2018-12-15T10:55:13.366Z,99166.62
2018-12-15T10:57:43.505Z,99166.09
2018-12-15T11:00:19.157Z,99161.79
2018-12-15T11:02:49.049Z,99164.97
2018-12-15T11:05:18.631Z,99161.45
2018-12-15T11:07:48.316Z,99156.83
2018-12-15T11:10:18.022Z,99149.16
2018-12-15T11:12:47.719Z,99148.78
2018-12-15T11:15:17.304Z,99144.30
2018-12-15T11:17:46.929Z,99139.61
2018-12-15T11:20:16.501Z,99140.24
2018-12-15T11:22:46.210Z,99138.02
2018-12-15T11:25:15.834Z,99130.63
2018-12-15T11:27:45.550Z,99134.19
2018-12-15T11:30:15.141Z,99126.77
2018-12-15T11:32:44.765Z,99126.78
2018-12-15T11:35:14.370Z,99116.34
2018-12-15T11:37:43.981Z,99106.20
2018-12-15T11:40:13.575Z,99106.34
2018-12-15T11:42:43.228Z,99102.84
2018-12-15T11:45:13.017Z,99110.36
2018-12-15T11:47:42.625Z,99105.33
2018-12-15T11:50:12.355Z,99105.72
2018-12-15T11:52:41.979Z,99093.78
2018-12-15T11:55:11.648Z,99096.33
2018-12-15T11:57:41.231Z,99092.75
2018-12-15T12:00:11.066Z,99088.80
2018-12-15T12:02:41.246Z,99086.71
2018-12-15T12:05:11.046Z,99077.48
2018-12-15T12:07:40.772Z,99080.92
2018-12-15T12:10:10.581Z,99073.53
2018-12-15T12:12:40.182Z,99073.64
2018-12-15T12:15:10.046Z,99072.67
2018-12-15T12:17:39.747Z,99066.52
2018-12-15T12:20:09.959Z,99066.62
2018-12-15T12:22:39.576Z,99066.22
2018-12-15T12:25:09.148Z,99062.95
2018-12-15T12:27:38.753Z,99059.05
2018-12-15T12:30:08.927Z,99059.70
2018-12-15T12:32:38.699Z,99059.55
2018-12-15T12:35:08.535Z,99065.44
2018-12-15T12:37:38.356Z,99063.95
2018-12-15T12:40:09.055Z,99066.73
2018-12-15T12:42:38.645Z,99061.07
2018-12-15T12:45:08.434Z,99063.05
2018-12-15T12:47:38.007Z,99048.41
2018-12-15T12:50:08.156Z,99053.95
2018-12-15T12:52:37.760Z,99052.93
2018-12-15T12:55:09.591Z,99048.00
2018-12-15T12:57:39.183Z,99053.38
2018-12-15T13:00:09.087Z,99048.75
2018-12-15T13:02:38.731Z,99048.91
2018-12-15T13:05:08.925Z,99048.91
2018-12-15T13:07:38.521Z,99045.12
2018-12-15T13:10:08.442Z,99045.92
2018-12-15T13:12:38.014Z,99049.81
2018-12-15T13:15:08.172Z,99051.61
2018-12-15T13:17:37.780Z,99046.13
2018-12-15T13:20:07.658Z,99044.91
2018-12-15T13:22:37.258Z,99048.62
2018-12-15T13:25:06.988Z,99049.94
2018-12-15T13:27:36.659Z,99048.69
2018-12-15T13:30:07.154Z,99044.67
2018-12-15T13:32:36.776Z,99047.95
2018-12-15T13:35:07.173Z,99046.14
2018-12-15T13:37:36.832Z,99051.05
2018-12-15T13:40:07.813Z,99053.95
2018-12-15T13:42:37.427Z,99056.55
2018-12-15T13:45:07.351Z,99057.40
2018-12-15T13:47:36.957Z,99056.94
2018-12-15T13:50:10.325Z,99057.58
2018-12-15T13:52:40.238Z,99061.65
2018-12-15T13:55:09.875Z,99057.97
2018-12-15T13:57:39.492Z,99057.73
2018-12-15T14:00:09.587Z,99059.77
2018-12-15T14:02:39.208Z,99051.52
2018-12-15T14:05:09.054Z,99050.16
2018-12-15T14:07:38.751Z,99050.72
2018-12-15T14:10:08.483Z,99052.81
2018-12-15T14:12:38.188Z,99043.25
2018-12-15T14:15:08.082Z,99035.61
2018-12-15T14:17:37.813Z,99048.52
2018-12-15T14:20:07.698Z,99046.88
2018-12-15T14:22:37.446Z,99045.17
2018-12-15T14:25:07.199Z,99044.16
2018-12-15T14:27:36.875Z,99046.92
2018-12-15T14:30:07.874Z,99050.66
2018-12-15T14:32:37.659Z,99048.56
2018-12-15T14:35:08.060Z,99044.34
2018-12-15T14:37:37.729Z,99037.77
2018-12-15T14:40:07.684Z,99038.27
2018-12-15T14:42:37.361Z,99032.17
2018-12-15T14:45:07.473Z,99033.91
2018-12-15T14:47:37.191Z,99035.89
2018-12-15T14:50:07.492Z,99032.17
2018-12-15T14:52:37.167Z,99043.75
2018-12-15T14:55:07.060Z,99043.53
2018-12-15T14:57:36.769Z,99040.19
2018-12-15T15:00:08.822Z,99042.47
2018-12-15T15:02:38.503Z,99039.97
2018-12-15T15:05:08.235Z,99042.28
2018-12-15T15:07:37.920Z,99041.72
2018-12-15T15:10:08.241Z,99034.09
2018-12-15T15:12:37.945Z,99032.34
2018-12-15T15:15:07.962Z,99029.22
2018-12-15T15:17:37.636Z,99024.98
2018-12-15T15:20:10.153Z,99018.92
2018-12-15T15:22:39.779Z,99015.02
2018-12-15T15:25:09.616Z,99018.07
2018-12-15T15:27:39.252Z,99016.76
2018-12-15T15:30:09.991Z,99007.48
2018-12-15T15:32:39.618Z,99000.78
2018-12-15T15:35:09.557Z,99008.73
2018-12-15T15:37:39.236Z,99005.36
2018-12-15T15:40:09.129Z,98999.53
2018-12-15T15:42:38.759Z,98995.98
2018-12-15T15:45:08.663Z,98994.73
2018-12-15T15:47:39.147Z,98997.09
2018-12-15T15:50:09.705Z,98990.38
2018-12-15T15:52:39.317Z,98987.84
2018-12-15T15:55:09.509Z,98985.28
2018-12-15T15:57:39.148Z,98981.05
2018-12-15T16:00:11.302Z,98981.73
2018-12-15T16:02:40.935Z,98978.33
2018-12-15T16:05:10.672Z,98971.77
2018-12-15T16:07:40.309Z,98978.77
2018-12-15T16:10:12.000Z,98980.36
2018-12-15T16:12:41.627Z,98975.31
2018-12-15T16:15:11.514Z,98970.80
2018-12-15T16:17:41.150Z,98969.80
2018-12-15T16:20:13.201Z,98963.41
2018-12-15T16:22:42.826Z,98964.20
2018-12-15T16:25:12.814Z,98960.53
2018-12-15T16:27:42.435Z,98954.53
2018-12-15T16:30:13.684Z,98959.05
2018-12-15T16:32:43.325Z,98946.80
2018-12-15T16:35:13.078Z,98950.00
2018-12-15T16:37:42.706Z,98947.02
2018-12-15T16:40:12.631Z,98948.26
2018-12-15T16:42:42.312Z,98948.14
2018-12-15T16:45:12.966Z,98943.89
2018-12-15T16:47:42.594Z,98940.73
2018-12-15T16:50:14.547Z,98942.61
2018-12-15T16:52:44.727Z,98934.73
2018-12-15T16:55:14.460Z,98929.44
2018-12-15T16:57:44.063Z,98933.95
2018-12-15T17:00:15.629Z,98932.99
2018-12-15T17:02:45.248Z,98933.50
2018-12-15T17:05:14.954Z,98938.75
2018-12-15T17:07:44.595Z,98936.55
2018-12-15T17:10:14.281Z,98938.13
2018-12-15T17:12:43.941Z,98935.41
2018-12-15T17:15:13.597Z,98940.67
2018-12-15T17:17:43.198Z,98938.97
2018-12-15T17:20:13.175Z,98938.50
2018-12-15T17:22:42.792Z,98944.16
2018-12-15T17:25:12.496Z,98936.58
2018-12-15T17:27:42.101Z,98941.16
2018-12-15T17:30:12.301Z,98936.02
2018-12-15T17:32:41.930Z,98933.92
2018-12-15T17:35:11.750Z,98931.55
2018-12-15T17:37:41.348Z,98939.39
2018-12-15T17:40:12.117Z,98942.84
2018-12-15T17:42:41.739Z,98935.17
2018-12-15T17:45:11.726Z,98935.95
2018-12-15T17:47:41.355Z,98929.73
2018-12-15T17:50:11.767Z,98924.31
2018-12-15T17:52:41.368Z,98916.00
2018-12-15T17:55:11.025Z,98914.08
2018-12-15T17:57:40.605Z,98909.29
2018-12-15T18:00:13.770Z,98908.69
2018-12-15T18:02:43.823Z,98902.70
2018-12-15T18:05:13.675Z,98903.05
2018-12-15T18:07:43.321Z,98893.59
2018-12-15T18:10:12.997Z,98897.08
2018-12-15T18:12:42.586Z,98903.36
2018-12-15T18:15:12.530Z,98901.45
2018-12-15T18:17:42.211Z,98895.27
2018-12-15T18:20:12.244Z,98886.08
2018-12-15T18:22:41.825Z,98884.48
2018-12-15T18:25:11.437Z,98881.11
2018-12-15T18:27:41.038Z,98875.31
2018-12-15T18:30:12.347Z,98875.45
2018-12-15T18:32:41.990Z,98870.50
2018-12-15T18:35:11.617Z,98870.81
2018-12-15T18:37:41.213Z,98869.08
2018-12-15T18:40:11.250Z,98859.88
2018-12-15T18:42:40.831Z,98857.44
2018-12-15T18:45:10.570Z,98856.65
2018-12-15T18:47:40.219Z,98852.92
2018-12-15T18:50:10.878Z,98852.64
2018-12-15T18:52:40.494Z,98850.94
2018-12-15T18:55:10.188Z,98841.00
2018-12-15T18:57:39.770Z,98847.22
2018-12-15T19:00:12.193Z,98837.34
2018-12-15T19:02:41.779Z,98831.17
2018-12-15T19:05:11.542Z,98822.09
2018-12-15T19:07:41.142Z,98812.05
2018-12-15T19:10:10.849Z,98800.20
2018-12-15T19:12:40.448Z,98804.42
2018-12-15T19:15:10.585Z,98814.48
2018-12-15T19:17:40.242Z,98809.33
2018-12-15T19:20:10.134Z,98789.74
2018-12-15T19:22:39.722Z,98796.23
2018-12-15T19:25:09.531Z,98797.70
2018-12-15T19:27:39.113Z,98797.19
2018-12-15T19:30:09.481Z,98792.61
2018-12-15T19:32:39.558Z,98785.91
2018-12-15T19:35:09.198Z,98781.16
2018-12-15T19:37:38.851Z,98782.02
2018-12-15T19:40:08.824Z,98778.85
2018-12-15T19:42:38.460Z,98776.23
2018-12-15T19:45:09.173Z,98771.27
2018-12-15T19:47:38.818Z,98767.89
2018-12-15T19:50:09.028Z,98768.50
2018-12-15T19:52:38.707Z,98766.98
2018-12-15T19:55:09.042Z,98769.30
2018-12-15T19:57:38.755Z,98753.88
2018-12-15T20:00:08.881Z,98747.02
2018-12-15T20:02:38.556Z,98736.56
2018-12-15T20:05:08.333Z,98736.43
2018-12-15T20:07:38.270Z,98726.69
2018-12-15T20:10:08.569Z,98729.16
2018-12-15T20:12:38.634Z,98721.48
2018-12-15T20:15:08.702Z,98720.84
2018-12-15T20:17:38.640Z,98722.05
2018-12-15T20:20:08.776Z,98702.87
2018-12-15T20:22:38.690Z,98707.20
2018-12-15T20:25:09.074Z,98712.27
2018-12-15T20:27:39.419Z,98712.59
2018-12-15T20:30:10.284Z,98705.17
2018-12-15T20:32:39.994Z,98704.22
2018-12-15T20:35:10.153Z,98695.42
2018-12-15T20:37:39.981Z,98696.20
2018-12-15T20:40:10.746Z,98692.77
2018-12-15T20:42:40.539Z,98698.02
2018-12-15T20:45:10.691Z,98699.40
2018-12-15T20:47:40.394Z,98691.56
2018-12-15T20:50:10.436Z,98690.56
2018-12-15T20:52:40.401Z,98694.78
2018-12-15T20:55:10.180Z,98701.73
2018-12-15T20:57:40.084Z,98698.08
2018-12-15T21:00:10.202Z,98699.64
2018-12-15T21:02:40.158Z,98698.45
2018-12-15T21:05:10.117Z,98699.49
2018-12-15T21:07:39.839Z,98693.00
2018-12-15T21:10:09.835Z,98688.59
2018-12-15T21:12:39.765Z,98684.48
2018-12-15T21:15:18.062Z,98678.84
2018-12-15T21:17:47.999Z,98673.66
2018-12-15T21:20:18.025Z,98669.64
2018-12-15T21:22:48.199Z,98676.23
2018-12-15T21:25:18.024Z,98663.55
2018-12-15T21:27:47.981Z,98652.24
2018-12-15T21:30:17.779Z,98650.73
2018-12-15T21:32:47.394Z,98658.35
2018-12-15T21:35:17.339Z,98650.12
2018-12-15T21:37:47.456Z,98648.12
2018-12-15T21:40:17.589Z,98647.47
2018-12-15T21:42:47.365Z,98643.97
2018-12-15T21:45:17.359Z,98638.05
2018-12-15T21:47:47.361Z,98638.38
2018-12-15T21:50:17.388Z,98632.16
2018-12-15T21:52:47.269Z,98630.70
2018-12-15T21:55:17.007Z,98627.56
2018-12-15T21:57:46.874Z,98625.91
2018-12-15T22:00:17.067Z,98616.90
2018-12-15T22:02:46.940Z,98623.04
2018-12-15T22:05:16.713Z,98621.74
2018-12-15T22:07:46.432Z,98629.02
2018-12-15T22:10:16.081Z,98623.88
2018-12-15T22:12:45.755Z,98618.19
2018-12-15T22:15:15.339Z,98623.16
2018-12-15T22:17:44.983Z,98625.75
2018-12-15T22:20:15.032Z,98620.56
2018-12-15T22:22:44.854Z,98608.88
2018-12-15T22:25:14.673Z,98608.78
2018-12-15T22:27:44.617Z,98602.39
2018-12-15T22:30:14.384Z,98595.06
2018-12-15T22:32:44.445Z,98597.89
2018-12-15T22:35:14.250Z,98590.45
2018-12-15T22:37:44.061Z,98588.31
2018-12-15T22:40:13.898Z,98586.96
2018-12-15T22:42:43.819Z,98589.02
2018-12-15T22:45:13.395Z,98581.25
2018-12-15T22:47:43.240Z,98575.51
2018-12-15T22:50:12.837Z,98563.99
2018-12-15T22:52:42.570Z,98558.41
2018-12-15T22:55:12.178Z,98552.84
2018-12-15T22:57:41.955Z,98553.45
2018-12-15T23:00:13.496Z,98548.25
2018-12-15T23:02:43.164Z,98542.97
2018-12-15T23:05:12.785Z,98542.69
2018-12-15T23:07:42.482Z,98560.05
2018-12-15T23:10:12.084Z,98553.45
2018-12-15T23:12:41.688Z,98535.25
2018-12-15T23:15:11.292Z,98524.70
2018-12-15T23:17:40.882Z,98516.59
2018-12-15T23:20:10.673Z,98513.95
2018-12-15T23:22:40.305Z,98517.09
2018-12-15T23:25:09.935Z,98513.20
2018-12-15T23:27:39.628Z,98502.45
2018-12-15T23:30:09.684Z,98485.61
2018-12-15T23:32:39.373Z,98482.80
2018-12-15T23:35:08.974Z,98483.47
2018-12-15T23:37:38.690Z,98484.81
2018-12-15T23:40:08.487Z,98482.89
2018-12-15T23:42:38.108Z,98480.76
2018-12-15T23:45:08.245Z,98480.02
2018-12-15T23:47:37.810Z,98481.94
2018-12-15T23:50:07.512Z,98486.44
2018-12-15T23:52:37.147Z,98483.96
2018-12-15T23:55:07.138Z,98483.98
2018-12-15T23:57:36.753Z,98482.40
